Terminal Aerodrome Forecast
Issued by NWS Sioux Falls, SD

Home | Current Version | Previous Version | Text Only | Print | Product List | Glossary Off
Versions: 1 2 3 4 5 6 7 8 9 10 11 12 13 14 15 16 17

000
FTUS43 KFSD 191132
TAFHON
TAF
KHON 191132Z 1912/2012 12007KT P6SM BKN200
     FM191700 15010G18KT P6SM SCT200
     FM200000 12010KT P6SM VCTS SCT070CB SCT200
     FM200500 06008KT P6SM BKN150
     FM200600 04008KT P6SM BKN020=

USA.gov is the U.S. government's official web portal to all federal, state and local government web resources and services.